sensor_id;sensor_type;location;lat;lon;timestamp;P1;durP1;ratioP1;P2;durP2;ratioP2
71902;SDS011;59778;50.310;18.780;2024-03-08T00:08:12;70.07;;;26.47;;
71902;SDS011;59778;50.310;18.780;2024-03-08T00:23:33;91.43;;;32.87;;
71902;SDS011;59778;50.310;18.780;2024-03-08T00:38:55;68.10;;;24.63;;
71902;SDS011;59778;50.310;18.780;2024-03-08T00:54:18;56.57;;;18.97;;
71902;SDS011;59778;50.310;18.780;2024-03-08T01:09:39;49.83;;;18.60;;
71902;SDS011;59778;50.310;18.780;2024-03-08T01:25:00;49.83;;;18.63;;
71902;SDS011;59778;50.310;18.780;2024-03-08T01:40:21;53.77;;;18.23;;
71902;SDS011;59778;50.310;18.780;2024-03-08T01:55:44;49.43;;;18.80;;
71902;SDS011;59778;50.310;18.780;2024-03-08T02:11:05;60.40;;;18.90;;
71902;SDS011;59778;50.310;18.780;2024-03-08T02:26:26;49.47;;;18.17;;
71902;SDS011;59778;50.310;18.780;2024-03-08T02:41:48;52.53;;;18.13;;
71902;SDS011;59778;50.310;18.780;2024-03-08T02:57:09;52.17;;;21.17;;
71902;SDS011;59778;50.310;18.780;2024-03-08T03:12:30;46.03;;;17.87;;
71902;SDS011;59778;50.310;18.780;2024-03-08T03:27:52;38.93;;;16.00;;
71902;SDS011;59778;50.310;18.780;2024-03-08T03:43:13;49.50;;;16.47;;
71902;SDS011;59778;50.310;18.780;2024-03-08T03:58:34;44.43;;;18.53;;
71902;SDS011;59778;50.310;18.780;2024-03-08T04:13:55;45.67;;;15.93;;
71902;SDS011;59778;50.310;18.780;2024-03-08T04:29:16;41.90;;;16.13;;
71902;SDS011;59778;50.310;18.780;2024-03-08T04:44:38;43.80;;;16.83;;
71902;SDS011;59778;50.310;18.780;2024-03-08T04:59:59;40.57;;;16.07;;
71902;SDS011;59778;50.310;18.780;2024-03-08T05:15:20;41.80;;;15.50;;
71902;SDS011;59778;50.310;18.780;2024-03-08T05:30:41;40.87;;;15.63;;
71902;SDS011;59778;50.310;18.780;2024-03-08T05:46:02;42.73;;;16.47;;
71902;SDS011;59778;50.310;18.780;2024-03-08T06:01:25;44.53;;;17.30;;
71902;SDS011;59778;50.310;18.780;2024-03-08T06:16:47;34.10;;;14.50;;
71902;SDS011;59778;50.310;18.780;2024-03-08T06:32:08;39.43;;;14.90;;
71902;SDS011;59778;50.310;18.780;2024-03-08T06:47:29;30.87;;;13.13;;
71902;SDS011;59778;50.310;18.780;2024-03-08T07:02:50;35.57;;;12.53;;
71902;SDS011;59778;50.310;18.780;2024-03-08T07:18:14;29.03;;;12.13;;
71902;SDS011;59778;50.310;18.780;2024-03-08T07:33:35;51.03;;;19.80;;
71902;SDS011;59778;50.310;18.780;2024-03-08T07:48:56;36.77;;;16.57;;
71902;SDS011;59778;50.310;18.780;2024-03-08T08:04:18;38.23;;;15.40;;
71902;SDS011;59778;50.310;18.780;2024-03-08T08:19:43;32.70;;;14.03;;
71902;SDS011;59778;50.310;18.780;2024-03-08T08:35:04;32.27;;;14.07;;
71902;SDS011;59778;50.310;18.780;2024-03-08T08:50:25;38.00;;;15.33;;
71902;SDS011;59778;50.310;18.780;2024-03-08T09:05:48;33.57;;;14.13;;
71902;SDS011;59778;50.310;18.780;2024-03-08T09:21:09;35.73;;;15.50;;
71902;SDS011;59778;50.310;18.780;2024-03-08T09:36:30;27.50;;;12.77;;
71902;SDS011;59778;50.310;18.780;2024-03-08T09:51:53;36.83;;;16.07;;
71902;SDS011;59778;50.310;18.780;2024-03-08T10:07:16;31.30;;;14.90;;
71902;SDS011;59778;50.310;18.780;2024-03-08T10:22:40;30.77;;;13.20;;
71902;SDS011;59778;50.310;18.780;2024-03-08T10:38:04;33.23;;;15.70;;
71902;SDS011;59778;50.310;18.780;2024-03-08T10:53:29;33.77;;;15.40;;
71902;SDS011;59778;50.310;18.780;2024-03-08T11:08:50;31.97;;;13.27;;
71902;SDS011;59778;50.310;18.780;2024-03-08T11:24:12;27.57;;;13.50;;
71902;SDS011;59778;50.310;18.780;2024-03-08T11:39:34;32.40;;;14.23;;
71902;SDS011;59778;50.310;18.780;2024-03-08T11:54:55;30.80;;;14.13;;
71902;SDS011;59778;50.310;18.780;2024-03-08T12:10:20;25.10;;;12.70;;
71902;SDS011;59778;50.310;18.780;2024-03-08T12:25:42;28.37;;;13.27;;
71902;SDS011;59778;50.310;18.780;2024-03-08T12:41:03;31.40;;;14.90;;
71902;SDS011;59778;50.310;18.780;2024-03-08T12:56:29;30.17;;;14.80;;
71902;SDS011;59778;50.310;18.780;2024-03-08T13:11:50;30.27;;;14.80;;
71902;SDS011;59778;50.310;18.780;2024-03-08T13:27:11;35.30;;;16.57;;
71902;SDS011;59778;50.310;18.780;2024-03-08T13:42:42;32.73;;;14.33;;
71902;SDS011;59778;50.310;18.780;2024-03-08T13:58:04;31.53;;;14.07;;
71902;SDS011;59778;50.310;18.780;2024-03-08T14:13:25;31.83;;;14.20;;
71902;SDS011;59778;50.310;18.780;2024-03-08T14:28:46;32.97;;;14.63;;
71902;SDS011;59778;50.310;18.780;2024-03-08T14:44:07;40.77;;;18.83;;
71902;SDS011;59778;50.310;18.780;2024-03-08T14:59:28;39.50;;;16.23;;
71902;SDS011;59778;50.310;18.780;2024-03-08T15:14:52;37.17;;;16.10;;
71902;SDS011;59778;50.310;18.780;2024-03-08T15:30:14;34.60;;;16.40;;
71902;SDS011;59778;50.310;18.780;2024-03-08T15:45:37;48.93;;;20.30;;
71902;SDS011;59778;50.310;18.780;2024-03-08T16:00:58;38.43;;;16.80;;
71902;SDS011;59778;50.310;18.780;2024-03-08T16:16:22;44.43;;;18.43;;
71902;SDS011;59778;50.310;18.780;2024-03-08T16:31:43;40.20;;;17.67;;
71902;SDS011;59778;50.310;18.780;2024-03-08T16:47:06;48.10;;;18.73;;
71902;SDS011;59778;50.310;18.780;2024-03-08T17:02:27;57.77;;;25.20;;
71902;SDS011;59778;50.310;18.780;2024-03-08T17:17:49;120.43;;;34.10;;
71902;SDS011;59778;50.310;18.780;2024-03-08T17:33:11;103.20;;;31.77;;
71902;SDS011;59778;50.310;18.780;2024-03-08T17:48:35;131.70;;;42.90;;
71902;SDS011;59778;50.310;18.780;2024-03-08T18:03:56;133.47;;;46.07;;
71902;SDS011;59778;50.310;18.780;2024-03-08T18:19:17;126.13;;;48.07;;
71902;SDS011;59778;50.310;18.780;2024-03-08T18:34:40;75.23;;;29.77;;
71902;SDS011;59778;50.310;18.780;2024-03-08T18:50:04;86.57;;;33.13;;
71902;SDS011;59778;50.310;18.780;2024-03-08T19:05:27;132.70;;;49.10;;
71902;SDS011;59778;50.310;18.780;2024-03-08T19:20:48;121.37;;;38.57;;
71902;SDS011;59778;50.310;18.780;2024-03-08T19:36:09;122.30;;;40.30;;
71902;SDS011;59778;50.310;18.780;2024-03-08T19:51:33;109.87;;;36.40;;
71902;SDS011;59778;50.310;18.780;2024-03-08T20:06:56;136.23;;;41.87;;
71902;SDS011;59778;50.310;18.780;2024-03-08T20:22:17;140.07;;;48.73;;
71902;SDS011;59778;50.310;18.780;2024-03-08T20:37:40;164.67;;;50.83;;
71902;SDS011;59778;50.310;18.780;2024-03-08T20:53:09;123.80;;;39.43;;
71902;SDS011;59778;50.310;18.780;2024-03-08T21:08:32;145.53;;;49.13;;
71902;SDS011;59778;50.310;18.780;2024-03-08T21:23:55;163.83;;;51.87;;
71902;SDS011;59778;50.310;18.780;2024-03-08T21:39:22;159.33;;;52.57;;
71902;SDS011;59778;50.310;18.780;2024-03-08T21:54:48;111.03;;;37.07;;
71902;SDS011;59778;50.310;18.780;2024-03-08T22:10:11;98.87;;;37.87;;
71902;SDS011;59778;50.310;18.780;2024-03-08T22:25:42;65.00;;;23.87;;
71902;SDS011;59778;50.310;18.780;2024-03-08T22:41:04;59.80;;;22.67;;
71902;SDS011;59778;50.310;18.780;2024-03-08T22:56:25;81.67;;;29.57;;
71902;SDS011;59778;50.310;18.780;2024-03-08T23:11:47;91.00;;;27.67;;
71902;SDS011;59778;50.310;18.780;2024-03-08T23:27:09;78.13;;;29.27;;
71902;SDS011;59778;50.310;18.780;2024-03-08T23:42:30;93.03;;;31.53;;
